sensor_id;sensor_type;location;lat;lon;timestamp;P1;durP1;ratioP1;P2;durP2;ratioP2
7933;SDS011;4012;48.896;9.192;2022-07-05T00:02:09;5.30;;;1.90;;
7933;SDS011;4012;48.896;9.192;2022-07-05T00:04:34;2.30;;;2.10;;
7933;SDS011;4012;48.896;9.192;2022-07-05T00:07:00;3.10;;;2.20;;
7933;SDS011;4012;48.896;9.192;2022-07-05T00:09:48;3.37;;;2.30;;
7933;SDS011;4012;48.896;9.192;2022-07-05T00:12:16;5.00;;;1.90;;
7933;SDS011;4012;48.896;9.192;2022-07-05T00:14:43;4.40;;;2.10;;
7933;SDS011;4012;48.896;9.192;2022-07-05T00:17:10;6.00;;;2.30;;
7933;SDS011;4012;48.896;9.192;2022-07-05T00:19:37;2.87;;;2.13;;
7933;SDS011;4012;48.896;9.192;2022-07-05T00:22:03;2.93;;;2.10;;
7933;SDS011;4012;48.896;9.192;2022-07-05T00:24:29;7.47;;;2.10;;
7933;SDS011;4012;48.896;9.192;2022-07-05T00:26:55;3.73;;;2.13;;
7933;SDS011;4012;48.896;9.192;2022-07-05T00:29:20;2.83;;;1.80;;
7933;SDS011;4012;48.896;9.192;2022-07-05T00:31:46;4.17;;;1.80;;
7933;SDS011;4012;48.896;9.192;2022-07-05T00:34:12;5.70;;;2.40;;
7933;SDS011;4012;48.896;9.192;2022-07-05T00:36:38;3.70;;;2.37;;
7933;SDS011;4012;48.896;9.192;2022-07-05T00:39:04;2.93;;;2.10;;
7933;SDS011;4012;48.896;9.192;2022-07-05T00:41:31;4.53;;;2.03;;
7933;SDS011;4012;48.896;9.192;2022-07-05T00:43:58;3.13;;;2.10;;
7933;SDS011;4012;48.896;9.192;2022-07-05T00:46:32;3.60;;;2.20;;
7933;SDS011;4012;48.896;9.192;2022-07-05T00:48:58;2.20;;;1.80;;
7933;SDS011;4012;48.896;9.192;2022-07-05T00:51:25;3.33;;;2.20;;
7933;SDS011;4012;48.896;9.192;2022-07-05T00:53:53;4.20;;;2.30;;
7933;SDS011;4012;48.896;9.192;2022-07-05T00:56:19;4.60;;;2.53;;
7933;SDS011;4012;48.896;9.192;2022-07-05T00:58:46;3.10;;;2.43;;
7933;SDS011;4012;48.896;9.192;2022-07-05T01:01:11;5.03;;;2.43;;
7933;SDS011;4012;48.896;9.192;2022-07-05T01:03:37;5.23;;;2.50;;
7933;SDS011;4012;48.896;9.192;2022-07-05T01:06:05;6.10;;;2.50;;
7933;SDS011;4012;48.896;9.192;2022-07-05T01:08:33;4.43;;;2.67;;
7933;SDS011;4012;48.896;9.192;2022-07-05T01:11:02;4.03;;;2.63;;
7933;SDS011;4012;48.896;9.192;2022-07-05T01:13:28;4.80;;;2.63;;
7933;SDS011;4012;48.896;9.192;2022-07-05T01:15:58;3.03;;;2.63;;
7933;SDS011;4012;48.896;9.192;2022-07-05T01:18:24;6.27;;;2.53;;
7933;SDS011;4012;48.896;9.192;2022-07-05T01:20:51;4.37;;;2.27;;
7933;SDS011;4012;48.896;9.192;2022-07-05T01:23:17;4.53;;;2.60;;
7933;SDS011;4012;48.896;9.192;2022-07-05T01:25:43;2.93;;;2.47;;
7933;SDS011;4012;48.896;9.192;2022-07-05T01:28:11;5.93;;;2.50;;
7933;SDS011;4012;48.896;9.192;2022-07-05T01:30:37;4.37;;;2.70;;
7933;SDS011;4012;48.896;9.192;2022-07-05T01:33:05;5.53;;;2.70;;
7933;SDS011;4012;48.896;9.192;2022-07-05T01:35:32;3.13;;;2.30;;
7933;SDS011;4012;48.896;9.192;2022-07-05T01:37:58;6.77;;;2.27;;
7933;SDS011;4012;48.896;9.192;2022-07-05T01:40:24;5.20;;;2.50;;
7933;SDS011;4012;48.896;9.192;2022-07-05T01:42:50;5.40;;;2.77;;
7933;SDS011;4012;48.896;9.192;2022-07-05T01:45:16;4.53;;;2.23;;
7933;SDS011;4012;48.896;9.192;2022-07-05T01:48:00;6.13;;;2.43;;
7933;SDS011;4012;48.896;9.192;2022-07-05T01:50:27;5.20;;;2.90;;
7933;SDS011;4012;48.896;9.192;2022-07-05T01:52:56;2.73;;;2.53;;
7933;SDS011;4012;48.896;9.192;2022-07-05T01:55:25;2.77;;;2.43;;
7933;SDS011;4012;48.896;9.192;2022-07-05T01:57:51;4.40;;;2.87;;
7933;SDS011;4012;48.896;9.192;2022-07-05T02:00:16;4.07;;;2.70;;
7933;SDS011;4012;48.896;9.192;2022-07-05T02:02:42;4.43;;;2.50;;
7933;SDS011;4012;48.896;9.192;2022-07-05T02:05:09;4.20;;;2.37;;
7933;SDS011;4012;48.896;9.192;2022-07-05T02:07:35;3.77;;;2.60;;
7933;SDS011;4012;48.896;9.192;2022-07-05T02:10:01;3.33;;;2.50;;
7933;SDS011;4012;48.896;9.192;2022-07-05T02:12:26;3.07;;;2.77;;
7933;SDS011;4012;48.896;9.192;2022-07-05T02:14:52;4.07;;;2.70;;
7933;SDS011;4012;48.896;9.192;2022-07-05T02:17:17;3.37;;;2.67;;
7933;SDS011;4012;48.896;9.192;2022-07-05T02:19:43;3.17;;;2.60;;
7933;SDS011;4012;48.896;9.192;2022-07-05T02:22:09;3.73;;;2.90;;
7933;SDS011;4012;48.896;9.192;2022-07-05T02:24:34;4.37;;;2.50;;
7933;SDS011;4012;48.896;9.192;2022-07-05T02:27:00;3.93;;;2.40;;
7933;SDS011;4012;48.896;9.192;2022-07-05T02:29:25;5.90;;;2.70;;
7933;SDS011;4012;48.896;9.192;2022-07-05T02:31:51;3.97;;;2.30;;
7933;SDS011;4012;48.896;9.192;2022-07-05T02:34:17;2.57;;;2.37;;
7933;SDS011;4012;48.896;9.192;2022-07-05T02:36:42;6.47;;;2.43;;
7933;SDS011;4012;48.896;9.192;2022-07-05T02:39:08;4.13;;;2.63;;
7933;SDS011;4012;48.896;9.192;2022-07-05T02:41:33;2.53;;;2.33;;
7933;SDS011;4012;48.896;9.192;2022-07-05T02:43:59;4.83;;;2.40;;
7933;SDS011;4012;48.896;9.192;2022-07-05T02:46:24;7.33;;;2.63;;
7933;SDS011;4012;48.896;9.192;2022-07-05T02:48:50;2.97;;;2.63;;
7933;SDS011;4012;48.896;9.192;2022-07-05T02:51:17;5.43;;;2.73;;
7933;SDS011;4012;48.896;9.192;2022-07-05T02:53:43;4.93;;;2.60;;
7933;SDS011;4012;48.896;9.192;2022-07-05T02:56:09;3.77;;;2.57;;
7933;SDS011;4012;48.896;9.192;2022-07-05T02:58:34;3.17;;;2.53;;
7933;SDS011;4012;48.896;9.192;2022-07-05T03:01:01;3.33;;;2.47;;
7933;SDS011;4012;48.896;9.192;2022-07-05T03:03:27;6.37;;;3.20;;
7933;SDS011;4012;48.896;9.192;2022-07-05T03:05:53;3.17;;;2.50;;
7933;SDS011;4012;48.896;9.192;2022-07-05T03:08:18;3.83;;;2.80;;
7933;SDS011;4012;48.896;9.192;2022-07-05T03:10:44;3.90;;;2.40;;
7933;SDS011;4012;48.896;9.192;2022-07-05T03:13:09;4.90;;;2.67;;
7933;SDS011;4012;48.896;9.192;2022-07-05T03:15:35;4.57;;;2.70;;
7933;SDS011;4012;48.896;9.192;2022-07-05T03:18:01;6.23;;;2.73;;
7933;SDS011;4012;48.896;9.192;2022-07-05T03:20:26;3.53;;;2.50;;
7933;SDS011;4012;48.896;9.192;2022-07-05T03:22:52;3.33;;;2.43;;
7933;SDS011;4012;48.896;9.192;2022-07-05T03:25:18;3.67;;;2.90;;
7933;SDS011;4012;48.896;9.192;2022-07-05T03:27:43;5.43;;;2.70;;
7933;SDS011;4012;48.896;9.192;2022-07-05T03:30:09;4.30;;;2.90;;
7933;SDS011;4012;48.896;9.192;2022-07-05T03:32:35;6.23;;;2.70;;
7933;SDS011;4012;48.896;9.192;2022-07-05T03:35:01;2.40;;;2.20;;
7933;SDS011;4012;48.896;9.192;2022-07-05T03:37:26;3.57;;;2.70;;
7933;SDS011;4012;48.896;9.192;2022-07-05T03:39:52;3.10;;;2.80;;
7933;SDS011;4012;48.896;9.192;2022-07-05T03:42:18;5.20;;;3.10;;
7933;SDS011;4012;48.896;9.192;2022-07-05T03:44:43;9.07;;;2.80;;
7933;SDS011;4012;48.896;9.192;2022-07-05T03:47:09;5.63;;;3.00;;
7933;SDS011;4012;48.896;9.192;2022-07-05T03:49:34;3.90;;;2.60;;
7933;SDS011;4012;48.896;9.192;2022-07-05T03:52:00;4.17;;;2.70;;
7933;SDS011;4012;48.896;9.192;2022-07-05T03:54:25;5.37;;;2.73;;
7933;SDS011;4012;48.896;9.192;2022-07-05T03:56:51;3.87;;;3.10;;
7933;SDS011;4012;48.896;9.192;2022-07-05T03:59:17;6.93;;;3.03;;
7933;SDS011;4012;48.896;9.192;2022-07-05T04:01:42;4.87;;;3.20;;
7933;SDS011;4012;48.896;9.192;2022-07-05T04:04:08;3.90;;;2.40;;
7933;SDS011;4012;48.896;9.192;2022-07-05T04:06:33;5.33;;;2.73;;
7933;SDS011;4012;48.896;9.192;2022-07-05T04:08:59;6.93;;;3.20;;
7933;SDS011;4012;48.896;9.192;2022-07-05T04:11:25;6.37;;;3.13;;
7933;SDS011;4012;48.896;9.192;2022-07-05T04:13:50;4.47;;;3.40;;
7933;SDS011;4012;48.896;9.192;2022-07-05T04:16:16;4.93;;;3.00;;
7933;SDS011;4012;48.896;9.192;2022-07-05T04:18:41;5.13;;;3.10;;
7933;SDS011;4012;48.896;9.192;2022-07-05T04:21:07;5.53;;;3.53;;
7933;SDS011;4012;48.896;9.192;2022-07-05T04:23:33;5.63;;;3.27;;
7933;SDS011;4012;48.896;9.192;2022-07-05T04:26:00;2.93;;;2.63;;
7933;SDS011;4012;48.896;9.192;2022-07-05T04:28:27;3.93;;;2.80;;
7933;SDS011;4012;48.896;9.192;2022-07-05T04:30:55;3.33;;;3.00;;
7933;SDS011;4012;48.896;9.192;2022-07-05T04:33:23;6.80;;;2.93;;
7933;SDS011;4012;48.896;9.192;2022-07-05T04:35:49;5.47;;;2.33;;
7933;SDS011;4012;48.896;9.192;2022-07-05T04:38:15;5.33;;;2.93;;
7933;SDS011;4012;48.896;9.192;2022-07-05T04:40:40;3.87;;;2.73;;
7933;SDS011;4012;48.896;9.192;2022-07-05T04:43:06;7.67;;;2.20;;
7933;SDS011;4012;48.896;9.192;2022-07-05T04:45:32;2.27;;;2.07;;
7933;SDS011;4012;48.896;9.192;2022-07-05T04:47:58;4.57;;;2.27;;
7933;SDS011;4012;48.896;9.192;2022-07-05T04:50:24;4.13;;;2.10;;
7933;SDS011;4012;48.896;9.192;2022-07-05T04:52:49;2.87;;;2.17;;
7933;SDS011;4012;48.896;9.192;2022-07-05T04:55:15;3.00;;;2.13;;
7933;SDS011;4012;48.896;9.192;2022-07-05T04:57:41;2.33;;;2.10;;
7933;SDS011;4012;48.896;9.192;2022-07-05T05:00:08;2.70;;;1.60;;
7933;SDS011;4012;48.896;9.192;2022-07-05T05:02:35;5.00;;;2.03;;
7933;SDS011;4012;48.896;9.192;2022-07-05T05:05:01;2.83;;;1.50;;
7933;SDS011;4012;48.896;9.192;2022-07-05T05:07:27;4.13;;;2.07;;
7933;SDS011;4012;48.896;9.192;2022-07-05T05:09:53;1.97;;;1.77;;
7933;SDS011;4012;48.896;9.192;2022-07-05T05:12:19;2.70;;;1.90;;
7933;SDS011;4012;48.896;9.192;2022-07-05T05:14:44;3.80;;;1.90;;
7933;SDS011;4012;48.896;9.192;2022-07-05T05:17:10;5.80;;;1.97;;
7933;SDS011;4012;48.896;9.192;2022-07-05T05:19:35;3.43;;;1.90;;
7933;SDS011;4012;48.896;9.192;2022-07-05T05:22:01;5.57;;;2.10;;
7933;SDS011;4012;48.896;9.192;2022-07-05T05:24:26;3.57;;;1.70;;
7933;SDS011;4012;48.896;9.192;2022-07-05T05:26:52;5.80;;;2.23;;
7933;SDS011;4012;48.896;9.192;2022-07-05T05:29:18;4.33;;;1.67;;
7933;SDS011;4012;48.896;9.192;2022-07-05T05:31:46;3.33;;;1.50;;
7933;SDS011;4012;48.896;9.192;2022-07-05T05:34:11;5.20;;;1.80;;
7933;SDS011;4012;48.896;9.192;2022-07-05T05:36:37;5.90;;;1.70;;
7933;SDS011;4012;48.896;9.192;2022-07-05T05:39:03;9.13;;;1.60;;
7933;SDS011;4012;48.896;9.192;2022-07-05T05:41:29;3.07;;;1.97;;
7933;SDS011;4012;48.896;9.192;2022-07-05T05:43:54;5.30;;;1.60;;
7933;SDS011;4012;48.896;9.192;2022-07-05T05:46:20;2.87;;;1.80;;
7933;SDS011;4012;48.896;9.192;2022-07-05T05:48:46;4.57;;;1.60;;
7933;SDS011;4012;48.896;9.192;2022-07-05T05:51:11;3.27;;;1.67;;
7933;SDS011;4012;48.896;9.192;2022-07-05T05:53:37;4.87;;;1.90;;
7933;SDS011;4012;48.896;9.192;2022-07-05T05:56:03;2.53;;;2.00;;
7933;SDS011;4012;48.896;9.192;2022-07-05T05:58:29;3.93;;;1.63;;
7933;SDS011;4012;48.896;9.192;2022-07-05T06:00:54;5.10;;;1.83;;
7933;SDS011;4012;48.896;9.192;2022-07-05T06:03:24;2.87;;;1.57;;
7933;SDS011;4012;48.896;9.192;2022-07-05T06:05:51;5.10;;;1.73;;
7933;SDS011;4012;48.896;9.192;2022-07-05T06:08:17;3.60;;;1.57;;
7933;SDS011;4012;48.896;9.192;2022-07-05T06:10:43;3.77;;;1.60;;
7933;SDS011;4012;48.896;9.192;2022-07-05T06:13:10;1.93;;;1.57;;
7933;SDS011;4012;48.896;9.192;2022-07-05T06:15:38;7.33;;;1.63;;
7933;SDS011;4012;48.896;9.192;2022-07-05T06:18:04;2.77;;;1.43;;
7933;SDS011;4012;48.896;9.192;2022-07-05T06:20:32;2.33;;;1.50;;
7933;SDS011;4012;48.896;9.192;2022-07-05T06:22:59;3.53;;;1.30;;
7933;SDS011;4012;48.896;9.192;2022-07-05T06:25:26;3.73;;;2.00;;
7933;SDS011;4012;48.896;9.192;2022-07-05T06:27:53;4.23;;;1.37;;
7933;SDS011;4012;48.896;9.192;2022-07-05T06:30:24;5.90;;;1.60;;
7933;SDS011;4012;48.896;9.192;2022-07-05T06:32:51;7.00;;;1.40;;
7933;SDS011;4012;48.896;9.192;2022-07-05T06:35:18;4.10;;;1.40;;
7933;SDS011;4012;48.896;9.192;2022-07-05T06:37:44;5.00;;;1.40;;
7933;SDS011;4012;48.896;9.192;2022-07-05T06:40:12;1.87;;;1.37;;
7933;SDS011;4012;48.896;9.192;2022-07-05T06:42:39;4.40;;;1.40;;
7933;SDS011;4012;48.896;9.192;2022-07-05T06:45:05;1.73;;;1.20;;
7933;SDS011;4012;48.896;9.192;2022-07-05T06:47:31;4.70;;;1.67;;
7933;SDS011;4012;48.896;9.192;2022-07-05T06:49:58;6.82;;;1.33;;
7933;SDS011;4012;48.896;9.192;2022-07-05T06:52:24;2.47;;;1.38;;
7933;SDS011;4012;48.896;9.192;2022-07-05T06:54:49;2.95;;;1.40;;
7933;SDS011;4012;48.896;9.192;2022-07-05T06:57:19;2.70;;;1.38;;
7933;SDS011;4012;48.896;9.192;2022-07-05T06:59:45;2.08;;;1.17;;
7933;SDS011;4012;48.896;9.192;2022-07-05T07:02:11;2.45;;;1.30;;
7933;SDS011;4012;48.896;9.192;2022-07-05T07:04:37;2.15;;;1.20;;
7933;SDS011;4012;48.896;9.192;2022-07-05T07:07:02;3.42;;;1.50;;
7933;SDS011;4012;48.896;9.192;2022-07-05T07:09:28;2.08;;;1.15;;
7933;SDS011;4012;48.896;9.192;2022-07-05T07:11:54;3.25;;;1.20;;
7933;SDS011;4012;48.896;9.192;2022-07-05T07:14:21;2.67;;;1.20;;
7933;SDS011;4012;48.896;9.192;2022-07-05T07:16:46;2.83;;;1.17;;
7933;SDS011;4012;48.896;9.192;2022-07-05T07:19:12;4.00;;;1.17;;
7933;SDS011;4012;48.896;9.192;2022-07-05T07:21:38;2.90;;;1.17;;
7933;SDS011;4012;48.896;9.192;2022-07-05T07:24:06;2.63;;;1.20;;
7933;SDS011;4012;48.896;9.192;2022-07-05T07:26:32;7.00;;;1.50;;
7933;SDS011;4012;48.896;9.192;2022-07-05T07:29:17;7.10;;;1.60;;
7933;SDS011;4012;48.896;9.192;2022-07-05T07:31:43;4.78;;;1.42;;
7933;SDS011;4012;48.896;9.192;2022-07-05T07:34:09;2.25;;;1.20;;
7933;SDS011;4012;48.896;9.192;2022-07-05T07:36:34;4.57;;;1.30;;
7933;SDS011;4012;48.896;9.192;2022-07-05T07:39:00;1.63;;;0.93;;
7933;SDS011;4012;48.896;9.192;2022-07-05T07:41:26;5.38;;;1.25;;
7933;SDS011;4012;48.896;9.192;2022-07-05T07:43:52;4.13;;;1.15;;
7933;SDS011;4012;48.896;9.192;2022-07-05T07:46:18;5.47;;;1.33;;
7933;SDS011;4012;48.896;9.192;2022-07-05T07:48:43;1.13;;;0.90;;
7933;SDS011;4012;48.896;9.192;2022-07-05T07:51:09;3.30;;;1.30;;
7933;SDS011;4012;48.896;9.192;2022-07-05T07:53:34;2.05;;;0.88;;
7933;SDS011;4012;48.896;9.192;2022-07-05T07:56:00;2.63;;;1.20;;
7933;SDS011;4012;48.896;9.192;2022-07-05T07:58:26;1.17;;;0.82;;
7933;SDS011;4012;48.896;9.192;2022-07-05T08:00:51;2.13;;;0.95;;
7933;SDS011;4012;48.896;9.192;2022-07-05T08:03:17;18.27;;;1.83;;
7933;SDS011;4012;48.896;9.192;2022-07-05T08:05:42;4.15;;;1.48;;
7933;SDS011;4012;48.896;9.192;2022-07-05T08:08:08;2.42;;;1.10;;
7933;SDS011;4012;48.896;9.192;2022-07-05T08:10:34;2.20;;;1.13;;
7933;SDS011;4012;48.896;9.192;2022-07-05T08:12:59;4.57;;;1.15;;
7933;SDS011;4012;48.896;9.192;2022-07-05T08:15:25;3.03;;;1.25;;
7933;SDS011;4012;48.896;9.192;2022-07-05T08:17:50;5.78;;;1.40;;
7933;SDS011;4012;48.896;9.192;2022-07-05T08:20:34;3.40;;;1.73;;
7933;SDS011;4012;48.896;9.192;2022-07-05T08:23:19;4.95;;;1.25;;
7933;SDS011;4012;48.896;9.192;2022-07-05T08:25:44;2.42;;;1.30;;
7933;SDS011;4012;48.896;9.192;2022-07-05T08:28:10;5.75;;;1.30;;
7933;SDS011;4012;48.896;9.192;2022-07-05T08:30:35;4.10;;;1.20;;
7933;SDS011;4012;48.896;9.192;2022-07-05T08:33:01;7.60;;;1.25;;
7933;SDS011;4012;48.896;9.192;2022-07-05T08:35:27;5.65;;;1.40;;
7933;SDS011;4012;48.896;9.192;2022-07-05T08:37:53;5.25;;;1.40;;
7933;SDS011;4012;48.896;9.192;2022-07-05T08:40:18;3.72;;;1.02;;
7933;SDS011;4012;48.896;9.192;2022-07-05T08:42:47;6.72;;;1.60;;
7933;SDS011;4012;48.896;9.192;2022-07-05T08:45:13;3.15;;;1.10;;
7933;SDS011;4012;48.896;9.192;2022-07-05T08:47:39;2.67;;;1.50;;
7933;SDS011;4012;48.896;9.192;2022-07-05T08:50:07;3.30;;;1.38;;
7933;SDS011;4012;48.896;9.192;2022-07-05T08:52:34;1.77;;;1.25;;
7933;SDS011;4012;48.896;9.192;2022-07-05T08:55:01;1.45;;;1.23;;
7933;SDS011;4012;48.896;9.192;2022-07-05T08:57:26;6.32;;;1.73;;
7933;SDS011;4012;48.896;9.192;2022-07-05T08:59:52;2.67;;;1.20;;
7933;SDS011;4012;48.896;9.192;2022-07-05T09:02:18;2.78;;;1.30;;
7933;SDS011;4012;48.896;9.192;2022-07-05T09:04:45;2.55;;;1.30;;
7933;SDS011;4012;48.896;9.192;2022-07-05T09:07:14;8.43;;;1.20;;
7933;SDS011;4012;48.896;9.192;2022-07-05T09:09:41;3.42;;;1.30;;
7933;SDS011;4012;48.896;9.192;2022-07-05T09:12:08;2.30;;;1.08;;
7933;SDS011;4012;48.896;9.192;2022-07-05T09:14:36;1.50;;;1.15;;
7933;SDS011;4012;48.896;9.192;2022-07-05T09:17:01;2.63;;;1.00;;
7933;SDS011;4012;48.896;9.192;2022-07-05T09:19:27;3.80;;;1.27;;
7933;SDS011;4012;48.896;9.192;2022-07-05T09:22:03;5.63;;;1.67;;
7933;SDS011;4012;48.896;9.192;2022-07-05T09:24:30;4.10;;;1.17;;
7933;SDS011;4012;48.896;9.192;2022-07-05T09:27:03;3.03;;;1.33;;
7933;SDS011;4012;48.896;9.192;2022-07-05T09:29:29;3.55;;;1.17;;
7933;SDS011;4012;48.896;9.192;2022-07-05T09:31:55;4.30;;;0.80;;
7933;SDS011;4012;48.896;9.192;2022-07-05T09:34:21;1.60;;;1.00;;
7933;SDS011;4012;48.896;9.192;2022-07-05T09:36:50;2.40;;;0.88;;
7933;SDS011;4012;48.896;9.192;2022-07-05T09:42:14;2.05;;;1.05;;
7933;SDS011;4012;48.896;9.192;2022-07-05T09:44:46;3.05;;;1.00;;
7933;SDS011;4012;48.896;9.192;2022-07-05T09:47:14;5.65;;;1.23;;
7933;SDS011;4012;48.896;9.192;2022-07-05T09:49:44;0.95;;;0.80;;
7933;SDS011;4012;48.896;9.192;2022-07-05T09:52:28;3.17;;;1.10;;
7933;SDS011;4012;48.896;9.192;2022-07-05T09:57:33;3.47;;;1.10;;
7933;SDS011;4012;48.896;9.192;2022-07-05T10:00:02;1.50;;;1.40;;
7933;SDS011;4012;48.896;9.192;2022-07-05T10:05:11;4.47;;;1.10;;
7933;SDS011;4012;48.896;9.192;2022-07-05T10:10:11;1.73;;;1.35;;
7933;SDS011;4012;48.896;9.192;2022-07-05T10:12:39;2.95;;;1.70;;
7933;SDS011;4012;48.896;9.192;2022-07-05T10:15:07;3.55;;;0.70;;
7933;SDS011;4012;48.896;9.192;2022-07-05T10:17:36;3.70;;;0.90;;
7933;SDS011;4012;48.896;9.192;2022-07-05T10:20:08;4.20;;;1.20;;
7933;SDS011;4012;48.896;9.192;2022-07-05T10:22:42;3.65;;;1.60;;
7933;SDS011;4012;48.896;9.192;2022-07-05T10:25:09;5.40;;;1.10;;
7933;SDS011;4012;48.896;9.192;2022-07-05T10:27:36;3.78;;;1.00;;
7933;SDS011;4012;48.896;9.192;2022-07-05T10:30:02;2.25;;;1.13;;
7933;SDS011;4012;48.896;9.192;2022-07-05T10:32:29;2.17;;;0.85;;
7933;SDS011;4012;48.896;9.192;2022-07-05T10:34:56;1.48;;;0.80;;
7933;SDS011;4012;48.896;9.192;2022-07-05T10:37:27;4.28;;;1.20;;
7933;SDS011;4012;48.896;9.192;2022-07-05T10:39:57;1.65;;;1.00;;
7933;SDS011;4012;48.896;9.192;2022-07-05T10:42:25;2.90;;;1.02;;
7933;SDS011;4012;48.896;9.192;2022-07-05T10:45:00;3.67;;;1.00;;
7933;SDS011;4012;48.896;9.192;2022-07-05T10:47:27;5.57;;;1.00;;
7933;SDS011;4012;48.896;9.192;2022-07-05T10:50:03;6.20;;;1.13;;
7933;SDS011;4012;48.896;9.192;2022-07-05T10:52:30;2.03;;;1.05;;
7933;SDS011;4012;48.896;9.192;2022-07-05T11:00:41;2.73;;;1.30;;
7933;SDS011;4012;48.896;9.192;2022-07-05T11:06:02;3.00;;;1.10;;
7933;SDS011;4012;48.896;9.192;2022-07-05T11:11:32;2.57;;;1.30;;
7933;SDS011;4012;48.896;9.192;2022-07-05T11:13:59;4.40;;;3.17;;
7933;SDS011;4012;48.896;9.192;2022-07-05T11:16:27;2.53;;;0.97;;
7933;SDS011;4012;48.896;9.192;2022-07-05T11:19:10;2.80;;;1.10;;
7933;SDS011;4012;48.896;9.192;2022-07-05T11:21:39;3.87;;;1.03;;
7933;SDS011;4012;48.896;9.192;2022-07-05T11:24:25;2.10;;;1.30;;
7933;SDS011;4012;48.896;9.192;2022-07-05T11:26:52;2.20;;;1.00;;
7933;SDS011;4012;48.896;9.192;2022-07-05T11:32:09;2.73;;;1.30;;
7933;SDS011;4012;48.896;9.192;2022-07-05T11:35:19;1.20;;;1.00;;
7933;SDS011;4012;48.896;9.192;2022-07-05T11:40:37;5.33;;;1.20;;
7933;SDS011;4012;48.896;9.192;2022-07-05T11:43:03;3.67;;;1.20;;
7933;SDS011;4012;48.896;9.192;2022-07-05T11:45:32;2.57;;;1.10;;
7933;SDS011;4012;48.896;9.192;2022-07-05T11:47:58;3.43;;;1.30;;
7933;SDS011;4012;48.896;9.192;2022-07-05T11:50:28;7.50;;;1.57;;
7933;SDS011;4012;48.896;9.192;2022-07-05T11:52:55;1.20;;;1.10;;
7933;SDS011;4012;48.896;9.192;2022-07-05T11:55:23;1.63;;;1.27;;
7933;SDS011;4012;48.896;9.192;2022-07-05T11:57:51;3.70;;;1.60;;
7933;SDS011;4012;48.896;9.192;2022-07-05T12:00:25;4.27;;;1.30;;
7933;SDS011;4012;48.896;9.192;2022-07-05T12:02:57;1.20;;;0.90;;
7933;SDS011;4012;48.896;9.192;2022-07-05T12:05:28;2.40;;;1.20;;
7933;SDS011;4012;48.896;9.192;2022-07-05T12:07:54;3.77;;;1.10;;
7933;SDS011;4012;48.896;9.192;2022-07-05T12:10:20;4.17;;;1.10;;
7933;SDS011;4012;48.896;9.192;2022-07-05T12:13:05;3.63;;;1.77;;
7933;SDS011;4012;48.896;9.192;2022-07-05T12:15:31;1.87;;;0.97;;
7933;SDS011;4012;48.896;9.192;2022-07-05T12:17:59;1.33;;;1.00;;
7933;SDS011;4012;48.896;9.192;2022-07-05T12:20:29;2.93;;;1.17;;
7933;SDS011;4012;48.896;9.192;2022-07-05T12:22:56;2.40;;;1.20;;
7933;SDS011;4012;48.896;9.192;2022-07-05T12:25:24;3.90;;;1.30;;
7933;SDS011;4012;48.896;9.192;2022-07-05T12:27:51;2.50;;;1.20;;
7933;SDS011;4012;48.896;9.192;2022-07-05T12:30:19;2.63;;;1.20;;
7933;SDS011;4012;48.896;9.192;2022-07-05T12:32:58;2.67;;;1.50;;
7933;SDS011;4012;48.896;9.192;2022-07-05T12:38:11;1.80;;;0.93;;
7933;SDS011;4012;48.896;9.192;2022-07-05T12:40:40;3.30;;;1.30;;
7933;SDS011;4012;48.896;9.192;2022-07-05T12:43:08;1.60;;;1.50;;
7933;SDS011;4012;48.896;9.192;2022-07-05T12:45:42;1.57;;;1.00;;
7933;SDS011;4012;48.896;9.192;2022-07-05T12:48:09;2.97;;;1.33;;
7933;SDS011;4012;48.896;9.192;2022-07-05T12:50:46;2.40;;;1.20;;
7933;SDS011;4012;48.896;9.192;2022-07-05T12:53:16;1.63;;;1.10;;
7933;SDS011;4012;48.896;9.192;2022-07-05T12:56:03;5.20;;;1.50;;
7933;SDS011;4012;48.896;9.192;2022-07-05T12:58:54;1.33;;;1.03;;
7933;SDS011;4012;48.896;9.192;2022-07-05T13:01:25;1.70;;;1.20;;
7933;SDS011;4012;48.896;9.192;2022-07-05T13:04:09;3.67;;;1.20;;
7933;SDS011;4012;48.896;9.192;2022-07-05T13:09:14;5.53;;;1.33;;
7933;SDS011;4012;48.896;9.192;2022-07-05T13:14:46;4.00;;;1.37;;
7933;SDS011;4012;48.896;9.192;2022-07-05T13:17:16;2.47;;;1.00;;
7933;SDS011;4012;48.896;9.192;2022-07-05T13:19:43;8.03;;;1.30;;
7933;SDS011;4012;48.896;9.192;2022-07-05T13:22:10;4.33;;;1.40;;
7933;SDS011;4012;48.896;9.192;2022-07-05T13:24:36;3.10;;;1.23;;
7933;SDS011;4012;48.896;9.192;2022-07-05T13:27:02;1.20;;;1.10;;
7933;SDS011;4012;48.896;9.192;2022-07-05T13:29:29;6.67;;;1.40;;
7933;SDS011;4012;48.896;9.192;2022-07-05T13:31:55;2.17;;;1.20;;
7933;SDS011;4012;48.896;9.192;2022-07-05T13:34:20;2.10;;;1.20;;
7933;SDS011;4012;48.896;9.192;2022-07-05T13:36:51;1.43;;;1.10;;
7933;SDS011;4012;48.896;9.192;2022-07-05T13:39:24;2.33;;;1.30;;
7933;SDS011;4012;48.896;9.192;2022-07-05T13:41:51;2.70;;;1.10;;
7933;SDS011;4012;48.896;9.192;2022-07-05T13:44:18;5.13;;;1.10;;
7933;SDS011;4012;48.896;9.192;2022-07-05T13:46:45;2.63;;;1.20;;
7933;SDS011;4012;48.896;9.192;2022-07-05T13:49:11;2.63;;;1.20;;
7933;SDS011;4012;48.896;9.192;2022-07-05T13:51:37;1.40;;;1.17;;
7933;SDS011;4012;48.896;9.192;2022-07-05T13:54:02;3.47;;;1.30;;
7933;SDS011;4012;48.896;9.192;2022-07-05T13:56:28;2.07;;;1.43;;
7933;SDS011;4012;48.896;9.192;2022-07-05T13:58:54;3.50;;;1.20;;
7933;SDS011;4012;48.896;9.192;2022-07-05T14:01:21;3.80;;;1.20;;
7933;SDS011;4012;48.896;9.192;2022-07-05T14:03:57;1.03;;;0.93;;
7933;SDS011;4012;48.896;9.192;2022-07-05T14:06:25;6.63;;;1.40;;
7933;SDS011;4012;48.896;9.192;2022-07-05T14:08:51;1.10;;;1.00;;
7933;SDS011;4012;48.896;9.192;2022-07-05T14:11:17;3.23;;;1.13;;
7933;SDS011;4012;48.896;9.192;2022-07-05T14:13:43;1.63;;;0.90;;
7933;SDS011;4012;48.896;9.192;2022-07-05T14:16:09;3.67;;;1.20;;
7933;SDS011;4012;48.896;9.192;2022-07-05T14:18:35;4.73;;;1.13;;
7933;SDS011;4012;48.896;9.192;2022-07-05T14:21:01;1.10;;;1.00;;
7933;SDS011;4012;48.896;9.192;2022-07-05T14:23:26;3.63;;;1.20;;
7933;SDS011;4012;48.896;9.192;2022-07-05T14:25:52;3.37;;;1.10;;
7933;SDS011;4012;48.896;9.192;2022-07-05T14:28:18;2.47;;;1.30;;
7933;SDS011;4012;48.896;9.192;2022-07-05T14:30:44;3.03;;;0.97;;
7933;SDS011;4012;48.896;9.192;2022-07-05T14:33:11;2.17;;;1.10;;
7933;SDS011;4012;48.896;9.192;2022-07-05T14:35:38;1.10;;;1.00;;
7933;SDS011;4012;48.896;9.192;2022-07-05T14:38:04;2.87;;;1.13;;
7933;SDS011;4012;48.896;9.192;2022-07-05T14:40:31;2.40;;;1.07;;
7933;SDS011;4012;48.896;9.192;2022-07-05T14:42:57;2.43;;;1.17;;
7933;SDS011;4012;48.896;9.192;2022-07-05T14:45:23;2.53;;;1.40;;
7933;SDS011;4012;48.896;9.192;2022-07-05T14:47:50;3.53;;;1.10;;
7933;SDS011;4012;48.896;9.192;2022-07-05T14:50:16;2.40;;;1.50;;
7933;SDS011;4012;48.896;9.192;2022-07-05T14:52:42;1.13;;;0.90;;
7933;SDS011;4012;48.896;9.192;2022-07-05T14:55:08;1.80;;;1.53;;
7933;SDS011;4012;48.896;9.192;2022-07-05T14:57:35;2.43;;;1.27;;
7933;SDS011;4012;48.896;9.192;2022-07-05T15:00:01;4.13;;;1.50;;
7933;SDS011;4012;48.896;9.192;2022-07-05T15:02:28;3.40;;;1.17;;
7933;SDS011;4012;48.896;9.192;2022-07-05T15:04:56;1.70;;;1.20;;
7933;SDS011;4012;48.896;9.192;2022-07-05T15:07:22;2.70;;;1.40;;
7933;SDS011;4012;48.896;9.192;2022-07-05T15:09:48;2.57;;;1.20;;
7933;SDS011;4012;48.896;9.192;2022-07-05T15:12:13;3.17;;;1.20;;
7933;SDS011;4012;48.896;9.192;2022-07-05T15:14:39;1.87;;;1.07;;
7933;SDS011;4012;48.896;9.192;2022-07-05T15:17:04;1.77;;;1.43;;
7933;SDS011;4012;48.896;9.192;2022-07-05T15:19:30;3.00;;;1.40;;
7933;SDS011;4012;48.896;9.192;2022-07-05T15:21:56;5.23;;;1.77;;
7933;SDS011;4012;48.896;9.192;2022-07-05T15:24:21;3.60;;;1.17;;
7933;SDS011;4012;48.896;9.192;2022-07-05T15:26:47;2.70;;;1.60;;
7933;SDS011;4012;48.896;9.192;2022-07-05T15:29:13;1.50;;;1.20;;
7933;SDS011;4012;48.896;9.192;2022-07-05T15:31:39;2.13;;;1.40;;
7933;SDS011;4012;48.896;9.192;2022-07-05T15:34:05;2.07;;;1.40;;
7933;SDS011;4012;48.896;9.192;2022-07-05T15:36:31;1.43;;;1.13;;
7933;SDS011;4012;48.896;9.192;2022-07-05T15:38:58;2.53;;;1.63;;
7933;SDS011;4012;48.896;9.192;2022-07-05T15:41:26;2.00;;;1.27;;
7933;SDS011;4012;48.896;9.192;2022-07-05T15:43:56;3.03;;;1.13;;
7933;SDS011;4012;48.896;9.192;2022-07-05T15:46:21;2.10;;;1.30;;
7933;SDS011;4012;48.896;9.192;2022-07-05T15:48:47;3.50;;;1.13;;
7933;SDS011;4012;48.896;9.192;2022-07-05T15:51:14;3.27;;;1.40;;
7933;SDS011;4012;48.896;9.192;2022-07-05T15:53:41;3.10;;;1.20;;